createdAt,value
2022-10-04T00:01:45.419Z,97254.15
2022-10-04T00:04:28.407Z,97253.45
2022-10-04T00:07:03.289Z,97254.76
2022-10-04T00:09:36.268Z,97255.00
2022-10-04T00:12:05.979Z,97261.80
2022-10-04T00:14:39.501Z,97264.23
2022-10-04T00:17:20.354Z,97264.08
2022-10-04T00:19:50.570Z,97261.37
2022-10-04T00:22:23.700Z,97263.57
2022-10-04T00:25:21.227Z,97260.16
2022-10-04T00:28:28.936Z,97261.42
2022-10-04T00:31:09.155Z,97262.06
2022-10-04T00:33:44.052Z,97259.77
2022-10-04T00:36:24.177Z,97263.15
2022-10-04T00:39:13.318Z,97263.96
2022-10-04T00:41:47.411Z,97262.02
2022-10-04T00:44:47.420Z,97263.70
2022-10-04T00:47:21.273Z,97263.39
2022-10-04T00:49:52.041Z,97262.86
2022-10-04T00:52:26.303Z,97261.36
2022-10-04T00:55:00.154Z,97259.82
2022-10-04T00:57:37.349Z,97255.13
2022-10-04T01:00:12.172Z,97252.91
2022-10-04T01:02:45.741Z,97258.39
2022-10-04T01:05:16.352Z,97259.14
2022-10-04T01:07:56.147Z,97255.41
2022-10-04T01:10:29.889Z,97255.06
2022-10-04T01:13:16.567Z,97255.81
2022-10-04T01:16:14.878Z,97256.95
2022-10-04T01:18:43.410Z,97258.88
2022-10-04T01:21:20.361Z,97263.22
2022-10-04T01:23:51.181Z,97267.51
2022-10-04T01:26:32.357Z,97265.96
2022-10-04T01:29:08.070Z,97267.73
2022-10-04T01:31:45.986Z,97263.15
2022-10-04T01:34:16.751Z,97264.30
2022-10-04T01:36:47.793Z,97258.75
2022-10-04T01:39:18.208Z,97264.34
2022-10-04T01:41:54.163Z,97267.61
2022-10-04T01:44:27.895Z,97268.46
2022-10-04T01:47:02.136Z,97268.69
2022-10-04T01:49:34.540Z,97268.61
2022-10-04T01:52:40.852Z,97273.84
2022-10-04T01:55:17.261Z,97271.84
2022-10-04T01:57:50.717Z,97272.48
2022-10-04T02:00:22.110Z,97273.87
2022-10-04T02:03:00.901Z,97275.82
2022-10-04T02:05:38.542Z,97278.14
2022-10-04T02:08:13.547Z,97271.23
2022-10-04T02:10:43.715Z,97267.30
2022-10-04T02:13:15.482Z,97269.56
2022-10-04T02:15:44.835Z,97265.78
2022-10-04T02:18:15.776Z,97266.09
2022-10-04T02:20:45.490Z,97266.75
2022-10-04T02:23:14.477Z,97269.30
2022-10-04T02:25:42.295Z,97270.70
2022-10-04T02:28:12.350Z,97269.77
2022-10-04T02:30:44.540Z,97273.37
2022-10-04T02:33:12.616Z,97271.14
2022-10-04T02:35:46.471Z,97271.48
2022-10-04T02:38:14.843Z,97272.21
2022-10-04T02:40:56.148Z,97274.92
2022-10-04T02:43:30.605Z,97279.72
2022-10-04T02:46:17.733Z,97280.67
2022-10-04T02:48:56.314Z,97283.33
2022-10-04T02:51:33.645Z,97283.25
2022-10-04T02:54:07.872Z,97283.95
2022-10-04T02:56:37.731Z,97291.21
2022-10-04T02:59:07.255Z,97293.92
2022-10-04T03:01:57.820Z,97300.21
2022-10-04T03:04:30.541Z,97300.16
2022-10-04T03:07:02.270Z,97301.52
2022-10-04T03:09:30.592Z,97299.17
2022-10-04T03:11:59.212Z,97303.77
2022-10-04T03:14:28.949Z,97305.02
2022-10-04T03:17:00.846Z,97305.02
2022-10-04T03:19:33.930Z,97298.78
2022-10-04T03:22:08.890Z,97299.91
2022-10-04T03:25:02.614Z,97298.02
2022-10-04T03:27:34.564Z,97297.04
2022-10-04T03:30:03.018Z,97312.17
2022-10-04T03:32:32.533Z,97311.10
2022-10-04T03:35:07.947Z,97309.18
2022-10-04T03:37:38.568Z,97303.81
2022-10-04T03:40:10.232Z,97306.20
2022-10-04T03:42:39.711Z,97302.98
2022-10-04T03:45:15.754Z,97308.59
2022-10-04T03:47:48.624Z,97305.58
2022-10-04T03:50:21.247Z,97309.11
2022-10-04T03:52:54.749Z,97312.52
2022-10-04T03:55:32.239Z,97312.80
2022-10-04T03:58:01.331Z,97310.80
2022-10-04T04:00:29.718Z,97313.07
2022-10-04T04:03:01.183Z,97319.34
2022-10-04T04:05:39.561Z,97316.73
2022-10-04T04:08:12.417Z,97319.30
2022-10-04T04:10:54.537Z,97320.27
2022-10-04T04:13:45.604Z,97322.89
2022-10-04T04:16:14.992Z,97320.81
2022-10-04T04:18:45.455Z,97318.36
2022-10-04T04:21:18.886Z,97320.35
2022-10-04T04:24:02.843Z,97319.64
2022-10-04T04:26:36.807Z,97323.70
2022-10-04T04:29:11.315Z,97324.16
2022-10-04T04:32:09.198Z,97322.27
2022-10-04T04:34:51.282Z,97323.77
2022-10-04T04:37:20.096Z,97324.17
2022-10-04T04:39:55.090Z,97326.63
2022-10-04T04:42:33.113Z,97329.31
2022-10-04T04:45:07.010Z,97332.02
2022-10-04T04:47:37.405Z,97339.19
2022-10-04T04:50:15.524Z,97340.14
2022-10-04T04:52:58.910Z,97343.73
2022-10-04T04:55:44.498Z,97346.42
2022-10-04T04:58:22.316Z,97350.63
2022-10-04T05:00:55.959Z,97351.86
2022-10-04T05:03:24.163Z,97356.00
2022-10-04T05:05:52.465Z,97358.84
2022-10-04T05:08:20.305Z,97360.80
2022-10-04T05:10:55.563Z,97361.95
2022-10-04T05:13:32.048Z,97362.20
2022-10-04T05:16:01.121Z,97368.80
2022-10-04T05:18:33.520Z,97372.16
2022-10-04T05:21:20.680Z,97376.30
2022-10-04T05:23:49.067Z,97379.98
2022-10-04T05:26:25.175Z,97381.34
2022-10-04T05:28:54.823Z,97381.58
2022-10-04T05:31:35.157Z,97385.16
2022-10-04T05:34:15.999Z,97387.21
2022-10-04T05:37:20.606Z,97394.05
2022-10-04T05:39:54.304Z,97393.82
2022-10-04T05:42:24.189Z,97396.16
2022-10-04T05:44:57.321Z,97392.21
2022-10-04T05:47:31.130Z,97397.36
2022-10-04T05:50:01.118Z,97399.31
2022-10-04T05:52:34.605Z,97401.54
2022-10-04T05:55:28.741Z,97395.84
2022-10-04T05:58:25.352Z,97404.45
2022-10-04T06:01:11.370Z,97407.58
2022-10-04T06:03:54.920Z,97407.71
2022-10-04T06:06:31.387Z,97409.52
2022-10-04T06:09:34.904Z,97410.23
2022-10-04T06:12:17.632Z,97414.02
2022-10-04T06:15:05.438Z,97417.19
2022-10-04T06:18:12.461Z,97416.56
2022-10-04T06:20:46.112Z,97419.20
2022-10-04T06:23:17.121Z,97419.20
2022-10-04T06:26:10.372Z,97420.09
2022-10-04T06:28:43.330Z,97429.33
2022-10-04T06:31:34.500Z,97427.21
2022-10-04T06:34:36.508Z,97427.26
2022-10-04T06:37:22.908Z,97431.24
2022-10-04T06:40:26.164Z,97435.45
2022-10-04T06:43:05.225Z,97437.92
2022-10-04T06:45:45.094Z,97441.20
2022-10-04T06:48:23.860Z,97441.26
2022-10-04T06:51:28.589Z,97447.95
2022-10-04T06:54:15.294Z,97451.37
2022-10-04T06:57:14.209Z,97454.99
2022-10-04T07:00:01.358Z,97457.19
2022-10-04T07:02:42.681Z,97457.54
2022-10-04T07:05:30.755Z,97460.66
2022-10-04T07:08:34.305Z,97465.29
2022-10-04T07:11:17.632Z,97466.33
2022-10-04T07:13:58.466Z,97470.45
2022-10-04T07:16:44.007Z,97470.73
2022-10-04T07:19:24.907Z,97477.21
2022-10-04T07:22:08.269Z,97482.31
2022-10-04T07:24:36.660Z,97489.25
2022-10-04T07:27:12.467Z,97495.39
2022-10-04T07:29:46.282Z,97497.17
2022-10-04T07:32:34.804Z,97496.73
2022-10-04T07:35:06.417Z,97496.92
2022-10-04T07:37:51.260Z,97500.55
2022-10-04T07:40:23.127Z,97502.06
2022-10-04T07:43:00.072Z,97507.33
2022-10-04T07:45:32.899Z,97507.49
2022-10-04T07:48:14.648Z,97507.30
2022-10-04T07:50:56.314Z,97502.96
2022-10-04T07:53:30.282Z,97512.11
2022-10-04T07:56:11.002Z,97512.04
2022-10-04T07:58:49.745Z,97511.63
2022-10-04T08:01:45.899Z,97509.10
2022-10-04T08:04:51.417Z,97509.02
2022-10-04T08:07:33.253Z,97513.55
2022-10-04T08:10:35.691Z,97513.98
2022-10-04T08:13:37.513Z,97515.98
2022-10-04T08:16:37.187Z,97516.25
2022-10-04T08:19:23.033Z,97527.52
2022-10-04T08:22:33.479Z,97526.30
2022-10-04T08:25:33.010Z,97527.02
2022-10-04T08:28:53.319Z,97527.75
2022-10-04T08:31:48.624Z,97527.95
2022-10-04T08:34:31.300Z,97525.99
2022-10-04T08:37:28.045Z,97528.09
2022-10-04T08:40:44.301Z,97531.35
2022-10-04T08:43:31.069Z,97533.23
2022-10-04T08:46:26.322Z,97533.94
2022-10-04T08:49:21.632Z,97539.13
2022-10-04T08:52:08.657Z,97545.02
2022-10-04T08:54:40.479Z,97550.02
2022-10-04T08:57:15.835Z,97554.71
2022-10-04T08:59:58.073Z,97559.27
2022-10-04T09:02:41.728Z,97562.73
2022-10-04T09:05:27.823Z,97561.35
2022-10-04T09:08:14.405Z,97564.00
2022-10-04T09:11:05.169Z,97563.73
2022-10-04T09:13:57.256Z,97561.17
2022-10-04T09:16:42.830Z,97567.21
2022-10-04T09:19:23.526Z,97562.27
2022-10-04T09:21:57.569Z,97563.11
2022-10-04T09:24:34.173Z,97570.98
2022-10-04T09:27:54.730Z,97569.70
2022-10-04T09:30:56.916Z,97575.08
2022-10-04T09:33:53.586Z,97575.70
2022-10-04T09:36:54.633Z,97578.14
2022-10-04T09:39:30.472Z,97575.23
2022-10-04T09:42:16.885Z,97577.11
2022-10-04T09:45:23.348Z,97579.83
2022-10-04T09:48:22.496Z,97578.42
2022-10-04T09:51:18.899Z,97581.53
2022-10-04T09:54:22.129Z,97580.69
2022-10-04T09:57:28.275Z,97585.26
2022-10-04T10:00:02.955Z,97587.83
2022-10-04T10:02:33.986Z,97584.20
2022-10-04T10:05:27.041Z,97588.27
2022-10-04T10:08:13.617Z,97591.77
2022-10-04T10:11:21.898Z,97594.73
2022-10-04T10:14:08.475Z,97592.13
2022-10-04T10:17:00.978Z,97591.17
2022-10-04T10:19:41.882Z,97585.29
2022-10-04T10:22:30.715Z,97583.18
2022-10-04T10:25:13.073Z,97583.35
2022-10-04T10:27:43.786Z,97576.23
2022-10-04T10:30:31.408Z,97577.70
2022-10-04T10:33:08.694Z,97581.28
2022-10-04T10:36:08.357Z,97580.30
2022-10-04T10:39:02.530Z,97582.17
2022-10-04T10:41:53.072Z,97581.34
2022-10-04T10:44:23.648Z,97581.20
2022-10-04T10:47:16.569Z,97584.69
2022-10-04T10:50:03.958Z,97583.86
2022-10-04T10:53:09.997Z,97584.25
2022-10-04T10:55:49.398Z,97580.14
2022-10-04T10:59:10.819Z,97583.06
2022-10-04T11:02:00.569Z,97582.46
2022-10-04T11:05:13.339Z,97584.42
2022-10-04T11:07:56.325Z,97583.77
2022-10-04T11:10:55.030Z,97583.54
2022-10-04T11:13:48.720Z,97587.36
2022-10-04T11:16:21.524Z,97591.71
2022-10-04T11:19:17.646Z,97591.41
2022-10-04T11:22:09.782Z,97598.85
2022-10-04T11:25:35.153Z,97597.56
2022-10-04T11:28:26.591Z,97597.16
2022-10-04T11:31:13.343Z,97599.98
2022-10-04T11:34:05.523Z,97599.38
2022-10-04T11:36:51.052Z,97602.16
2022-10-04T11:39:44.534Z,97604.20
2022-10-04T11:42:57.356Z,97602.44
2022-10-04T11:45:42.789Z,97601.89
2022-10-04T11:48:23.274Z,97605.29
2022-10-04T11:51:06.215Z,97608.08
2022-10-04T11:53:45.353Z,97612.61
2022-10-04T11:56:35.352Z,97616.63
2022-10-04T11:59:28.116Z,97621.86
2022-10-04T12:02:27.274Z,97625.91
2022-10-04T12:05:36.717Z,97627.54
2022-10-04T12:08:49.106Z,97626.10
2022-10-04T12:11:51.843Z,97626.61
2022-10-04T12:14:24.861Z,97628.40
2022-10-04T12:16:58.669Z,97627.21
2022-10-04T12:19:39.752Z,97626.05
2022-10-04T12:22:23.646Z,97631.27
2022-10-04T12:25:03.375Z,97631.35
2022-10-04T12:27:46.179Z,97631.08
2022-10-04T12:30:23.034Z,97630.09
2022-10-04T12:33:03.690Z,97631.90
2022-10-04T12:35:45.817Z,97633.75
2022-10-04T12:38:21.316Z,97636.17
2022-10-04T12:41:16.110Z,97634.59
2022-10-04T12:44:00.760Z,97635.87
2022-10-04T12:46:45.630Z,97628.42
2022-10-04T12:49:28.877Z,97627.23
2022-10-04T12:52:12.002Z,97631.05
2022-10-04T12:55:06.244Z,97634.41
2022-10-04T12:58:19.687Z,97632.82
2022-10-04T13:00:49.472Z,97635.88
2022-10-04T13:03:23.013Z,97636.17
2022-10-04T13:06:07.944Z,97637.27
2022-10-04T13:08:53.947Z,97636.23
2022-10-04T13:11:33.491Z,97637.11
2022-10-04T13:14:26.612Z,97645.05
2022-10-04T13:17:34.640Z,97655.66
2022-10-04T13:20:37.942Z,97659.92
2022-10-04T13:23:19.579Z,97661.68
2022-10-04T13:26:04.430Z,97666.48
2022-10-04T13:28:44.076Z,97665.91
2022-10-04T13:31:35.138Z,97670.98
2022-10-04T13:34:29.493Z,97672.17
2022-10-04T13:37:12.247Z,97674.47
2022-10-04T13:40:12.672Z,97674.95
2022-10-04T13:42:49.659Z,97675.23
2022-10-04T13:45:45.426Z,97678.39
2022-10-04T13:49:04.550Z,97679.36
2022-10-04T13:52:27.128Z,97683.66
2022-10-04T13:55:53.066Z,97681.80
2022-10-04T13:58:32.251Z,97689.81
2022-10-04T14:01:02.911Z,97688.14
2022-10-04T14:03:54.956Z,97687.98
2022-10-04T14:06:38.688Z,97695.73
2022-10-04T14:09:48.455Z,97694.53
2022-10-04T14:12:42.900Z,97693.18
2022-10-04T14:15:11.332Z,97698.27
2022-10-04T14:18:10.643Z,97698.98
2022-10-04T14:21:00.082Z,97697.36
2022-10-04T14:23:37.912Z,97699.28
2022-10-04T14:26:23.436Z,97703.38
2022-10-04T14:29:28.620Z,97707.97
2022-10-04T14:32:33.566Z,97710.98
2022-10-04T14:35:13.483Z,97712.38
2022-10-04T14:37:55.399Z,97710.53
2022-10-04T14:40:57.143Z,97714.59
2022-10-04T14:43:43.702Z,97713.60
2022-10-04T14:46:42.119Z,97720.30
2022-10-04T14:49:29.725Z,97722.36
2022-10-04T14:52:36.758Z,97724.20
2022-10-04T14:55:10.710Z,97729.13
2022-10-04T14:57:38.504Z,97733.77
2022-10-04T15:00:11.977Z,97738.75
2022-10-04T15:03:04.422Z,97741.11
2022-10-04T15:06:08.945Z,97741.77
2022-10-04T15:08:57.923Z,97743.05
2022-10-04T15:12:21.417Z,97744.19
2022-10-04T15:15:12.293Z,97748.87
2022-10-04T15:17:52.365Z,97750.23
2022-10-04T15:20:57.373Z,97760.60
2022-10-04T15:23:47.873Z,97763.06
2022-10-04T15:26:18.535Z,97761.89
2022-10-04T15:28:49.393Z,97763.66
2022-10-04T15:31:28.823Z,97765.87
2022-10-04T15:34:24.076Z,97769.37
2022-10-04T15:37:29.676Z,97770.94
2022-10-04T15:40:24.715Z,97765.96
2022-10-04T15:43:11.003Z,97774.11
2022-10-04T15:46:02.256Z,97782.06
2022-10-04T15:49:09.974Z,97787.28
2022-10-04T15:52:10.401Z,97791.80
2022-10-04T15:55:15.326Z,97796.44
2022-10-04T15:57:46.479Z,97802.61
2022-10-04T16:00:41.343Z,97809.93
2022-10-04T16:03:21.637Z,97809.98
2022-10-04T16:06:12.567Z,97813.36
2022-10-04T16:09:20.950Z,97813.18
2022-10-04T16:12:20.359Z,97817.50
2022-10-04T16:15:31.840Z,97818.39
2022-10-04T16:18:17.431Z,97819.35
2022-10-04T16:21:06.217Z,97821.65
2022-10-04T16:23:37.125Z,97827.43
2022-10-04T16:26:10.425Z,97832.34
2022-10-04T16:28:51.442Z,97835.77
2022-10-04T16:31:38.480Z,97840.55
2022-10-04T16:34:08.145Z,97845.34
2022-10-04T16:36:58.863Z,97850.64
2022-10-04T16:40:00.117Z,97851.09
2022-10-04T16:43:05.767Z,97855.38
2022-10-04T16:45:40.886Z,97856.96
2022-10-04T16:48:27.488Z,97857.95
2022-10-04T16:51:13.389Z,97861.85
2022-10-04T16:53:44.922Z,97870.73
2022-10-04T16:56:17.987Z,97875.77
2022-10-04T16:59:00.906Z,97878.08
2022-10-04T17:01:41.024Z,97888.19
2022-10-04T17:04:36.392Z,97891.34
2022-10-04T17:07:12.258Z,97887.13
2022-10-04T17:10:12.701Z,97887.13
2022-10-04T17:12:47.623Z,97890.27
2022-10-04T17:15:15.709Z,97893.77
2022-10-04T17:18:11.551Z,97899.46
2022-10-04T17:20:42.546Z,97897.04
2022-10-04T17:23:31.821Z,97896.23
2022-10-04T17:26:35.142Z,97900.20
2022-10-04T17:29:32.595Z,97903.20
2022-10-04T17:32:27.462Z,97906.98
2022-10-04T17:35:20.084Z,97910.25
2022-10-04T17:37:59.857Z,97912.02
2022-10-04T17:40:40.773Z,97914.61
2022-10-04T17:43:23.837Z,97920.84
2022-10-04T17:46:16.384Z,97931.30
2022-10-04T17:49:15.795Z,97939.05
2022-10-04T17:52:12.404Z,97942.29
2022-10-04T17:55:08.060Z,97942.47
2022-10-04T17:57:35.871Z,97941.14
2022-10-04T18:00:09.526Z,97939.34
2022-10-04T18:02:37.570Z,97938.64
2022-10-04T18:05:21.176Z,97943.91
2022-10-04T18:07:57.146Z,97951.47
2022-10-04T18:10:30.054Z,97960.53
2022-10-04T18:13:12.093Z,97971.05
2022-10-04T18:15:53.378Z,97974.27
2022-10-04T18:18:29.784Z,97978.11
2022-10-04T18:20:57.553Z,97980.88
2022-10-04T18:23:27.451Z,97982.33
2022-10-04T18:26:17.650Z,97984.46
2022-10-04T18:28:47.761Z,97983.60
2022-10-04T18:31:41.090Z,97982.02
2022-10-04T18:34:29.962Z,97979.08
2022-10-04T18:37:05.831Z,97981.29
2022-10-04T18:39:53.108Z,97983.27
2022-10-04T18:42:35.283Z,97982.89
2022-10-04T18:45:34.065Z,97988.24
2022-10-04T18:48:14.487Z,97992.62
2022-10-04T18:50:47.364Z,98001.98
2022-10-04T18:53:33.608Z,98010.48
2022-10-04T18:56:20.517Z,98007.95
2022-10-04T18:59:32.187Z,98004.30
2022-10-04T19:03:00.502Z,98011.04
2022-10-04T19:05:52.093Z,98011.02
2022-10-04T19:08:38.853Z,98012.81
2022-10-04T19:11:19.403Z,98013.99
2022-10-04T19:14:10.217Z,98015.95
2022-10-04T19:16:55.226Z,98022.41
2022-10-04T19:19:31.647Z,98026.84
2022-10-04T19:22:12.387Z,98029.49
2022-10-04T19:25:02.195Z,98025.02
2022-10-04T19:27:41.215Z,98029.29
2022-10-04T19:30:22.859Z,98028.02
2022-10-04T19:33:07.003Z,98030.25
2022-10-04T19:35:38.032Z,98027.59
2022-10-04T19:38:29.557Z,98031.52
2022-10-04T19:40:57.798Z,98031.19
2022-10-04T19:43:44.155Z,98028.61
2022-10-04T19:46:26.227Z,98029.17
2022-10-04T19:48:54.811Z,98029.27
2022-10-04T19:51:34.393Z,98032.64
2022-10-04T19:54:15.754Z,98036.62
2022-10-04T19:56:49.720Z,98046.45
2022-10-04T19:59:24.350Z,98045.29
2022-10-04T20:01:53.191Z,98041.45
2022-10-04T20:04:35.685Z,98038.62
2022-10-04T20:07:23.363Z,98043.05
2022-10-04T20:09:57.608Z,98046.90
2022-10-04T20:12:35.804Z,98048.45
2022-10-04T20:35:02.339Z,98076.56
2022-10-04T20:37:45.132Z,98081.63
2022-10-04T20:40:21.837Z,98083.14
2022-10-04T20:43:26.613Z,98088.46
2022-10-04T20:45:55.336Z,98090.95
2022-10-04T20:48:29.059Z,98097.15
2022-10-04T20:51:06.546Z,98095.36
2022-10-04T20:53:34.635Z,98095.17
2022-10-04T20:56:28.126Z,98098.04
2022-10-04T20:59:01.205Z,98103.73
2022-10-04T21:01:38.165Z,98105.47
2022-10-04T21:04:50.064Z,98107.95
2022-10-04T21:07:20.841Z,98111.57
2022-10-04T21:09:49.770Z,98117.21
2022-10-04T21:12:29.500Z,98120.16
2022-10-04T21:15:17.797Z,98118.84
2022-10-04T21:18:07.574Z,98117.80
2022-10-04T21:20:52.312Z,98124.96
2022-10-04T21:23:33.695Z,98125.08
2022-10-04T21:26:21.164Z,98128.33
2022-10-04T21:29:01.647Z,98129.73
2022-10-04T21:31:29.648Z,98129.73
2022-10-04T21:33:57.612Z,98128.27
2022-10-04T21:36:25.938Z,98125.56
2022-10-04T21:38:54.412Z,98128.92
2022-10-04T21:41:22.212Z,98125.79
2022-10-04T21:43:49.998Z,98130.98
2022-10-04T21:46:20.365Z,98134.16
2022-10-04T21:48:48.773Z,98132.64
2022-10-04T21:51:16.717Z,98138.58
2022-10-04T21:53:44.602Z,98136.42
2022-10-04T21:56:12.614Z,98134.55
2022-10-04T21:58:40.500Z,98135.20
2022-10-04T22:01:08.530Z,98134.67
2022-10-04T22:03:36.500Z,98140.35
2022-10-04T22:06:04.461Z,98137.22
2022-10-04T22:08:32.393Z,98138.34
2022-10-04T22:11:00.287Z,98140.41
2022-10-04T22:13:28.288Z,98142.26
2022-10-04T22:15:56.217Z,98144.92
2022-10-04T22:18:24.122Z,98148.34
2022-10-04T22:20:51.934Z,98152.28
2022-10-04T22:23:22.903Z,98151.11
2022-10-04T22:25:51.201Z,98155.56
2022-10-04T22:28:24.808Z,98158.66
2022-10-04T22:30:55.887Z,98161.65
2022-10-04T22:33:50.899Z,98162.59
2022-10-04T22:36:35.871Z,98162.67
2022-10-04T22:39:15.141Z,98162.04
2022-10-04T22:41:47.443Z,98164.77
2022-10-04T22:44:19.367Z,98168.33
2022-10-04T22:46:51.800Z,98170.15
2022-10-04T22:49:44.461Z,98172.73
2022-10-04T22:52:21.661Z,98176.05
2022-10-04T22:54:52.691Z,98174.27
2022-10-04T22:57:20.885Z,98178.77
2022-10-04T22:59:51.270Z,98180.15
2022-10-04T23:02:26.792Z,98181.88
2022-10-04T23:05:19.240Z,98186.02
2022-10-04T23:07:51.277Z,98188.66
2022-10-04T23:10:21.412Z,98189.61
2022-10-04T23:12:49.704Z,98193.19
2022-10-04T23:15:20.603Z,98196.52
2022-10-04T23:17:55.378Z,98198.31
2022-10-04T23:20:23.649Z,98195.38
2022-10-04T23:22:53.318Z,98197.52
2022-10-04T23:25:28.859Z,98201.41
2022-10-04T23:28:01.224Z,98200.16
2022-10-04T23:30:29.207Z,98198.79
2022-10-04T23:33:00.677Z,98199.34
2022-10-04T23:35:33.189Z,98200.69
2022-10-04T23:38:07.281Z,98199.70
2022-10-04T23:40:35.187Z,98204.83
2022-10-04T23:43:06.085Z,98204.89
2022-10-04T23:45:35.888Z,98202.71
2022-10-04T23:48:08.709Z,98205.30
2022-10-04T23:50:38.471Z,98207.45
2022-10-04T23:53:19.737Z,98211.87
2022-10-04T23:55:47.593Z,98210.13
2022-10-04T23:58:30.112Z,98210.24
